Time;durP1;ratioP1;P1;durP2;ratioP2;P2;SDS_P1;SDS_P2;PMS_P1;PMS_P2;Temp;Humidity;BMP_temperature;BMP_pressure;BME280_temperature;BME280_humidity;BME280_pressure;Samples;Min_cycle;Max_cycle;Signal;HPM_P1;HPM_P2
2022/03/30 00:00:28;;;;;;;15.98;4.07;;;;;;;20.10;57.96;98484.09;7310865;19;129554;-39
2022/03/30 00:02:54;;;;;;;20.58;3.85;;;;;;;20.12;58.13;98491.75;7310675;19;158799;-40
2022/03/30 00:05:20;;;;;;;32.20;4.85;;;;;;;20.13;57.72;98489.00;7311666;19;129031;-38
2022/03/30 00:07:50;;;;;;;26.90;4.68;;;;;;;20.13;58.91;98486.38;7310846;19;128982;-43
2022/03/30 00:10:15;;;;;;;28.25;4.40;;;;;;;20.10;57.43;98478.06;7312162;19;130813;-41
2022/03/30 00:12:41;;;;;;;23.80;4.00;;;;;;;20.01;58.30;98468.56;7310391;19;157744;-37
2022/03/30 00:15:07;;;;;;;29.17;4.90;;;;;;;20.09;58.40;98479.88;7312555;19;129113;-41
2022/03/30 00:17:32;;;;;;;25.15;4.55;;;;;;;20.10;58.04;98473.66;7310366;19;129326;-39
2022/03/30 00:19:59;;;;;;;15.50;3.88;;;;;;;20.08;57.72;98470.38;7311542;19;129290;-42
2022/03/30 00:22:25;;;;;;;22.85;4.63;;;;;;;20.08;58.15;98470.38;7312575;19;130465;-41
2022/03/30 00:24:50;;;;;;;17.33;3.70;;;;;;;20.09;58.09;98471.22;7311538;19;129541;-42
2022/03/30 00:27:15;;;;;;;26.95;5.00;;;;;;;20.09;58.07;98461.59;7310164;19;129414;-40
2022/03/30 00:29:40;;;;;;;12.57;3.67;;;;;;;20.14;57.32;98466.34;7310232;19;150938;-43
2022/03/30 00:32:06;;;;;;;31.93;5.00;;;;;;;20.14;57.79;98468.94;7309555;19;158339;-41
2022/03/30 00:34:31;;;;;;;25.13;4.53;;;;;;;20.12;57.27;98465.66;7312046;19;130097;-41
2022/03/30 00:36:56;;;;;;;31.67;5.32;;;;;;;20.10;58.18;98462.41;7308804;19;153956;-35
2022/03/30 00:39:22;;;;;;;19.65;4.32;;;;;;;20.03;58.14;98450.97;7310402;19;159193;-42
2022/03/30 00:41:47;;;;;;;21.90;3.88;;;;;;;20.11;58.11;98464.06;7311511;19;158645;-41
2022/03/30 00:44:14;;;;;;;25.20;4.63;;;;;;;20.02;58.03;98451.94;7309053;19;155560;-40
2022/03/30 00:46:43;;;;;;;28.70;5.10;;;;;;;20.10;57.61;98462.41;7311889;19;129354;-41
2022/03/30 00:49:09;;;;;;;29.02;4.95;;;;;;;20.07;57.90;98457.50;7308877;19;129753;-41
2022/03/30 00:51:34;;;;;;;27.17;4.93;;;;;;;20.05;58.53;98459.44;7309762;19;129864;-41
2022/03/30 00:53:59;;;;;;;11.50;3.58;;;;;;;20.07;58.80;98462.72;7311233;19;128939;-40
2022/03/30 00:56:28;;;;;;;27.83;4.55;;;;;;;20.09;58.48;98461.59;7310364;19;128918;-41
2022/03/30 00:58:53;;;;;;;28.05;4.78;;;;;;;20.06;57.98;98464.53;7310538;19;130089;-42
2022/03/30 01:01:20;;;;;;;12.48;3.47;;;;;;;20.09;58.14;98460.78;7310058;19;129520;-39
2022/03/30 01:03:46;;;;;;;29.23;5.15;;;;;;;20.10;57.60;98465.00;7310486;19;129265;-37
2022/03/30 01:06:11;;;;;;;29.67;4.93;;;;;;;20.08;57.62;98459.16;7310553;19;129180;-41
2022/03/30 01:08:37;;;;;;;25.05;4.75;;;;;;;20.09;58.92;98450.34;7308757;19;129685;-44
2022/03/30 01:11:02;;;;;;;24.85;4.68;;;;;;;20.08;58.03;98448.72;7309554;19;154786;-41
2022/03/30 01:13:28;;;;;;;41.10;6.40;;;;;;;20.09;57.96;98456.38;7310251;19;130127;-40
2022/03/30 01:15:53;;;;;;;13.10;4.00;;;;;;;20.11;57.46;98448.41;7309333;19;129665;-42
2022/03/30 01:18:18;;;;;;;19.73;4.47;;;;;;;20.11;57.32;98449.22;7307675;19;149838;-38
2022/03/30 01:20:50;;;;;;;20.33;4.10;;;;;;;20.08;58.79;98449.50;7309894;19;144731;-41
2022/03/30 01:23:16;;;;;;;8.18;3.53;;;;;;;20.09;57.73;98443.34;7314969;19;129099;-37
2022/03/30 01:25:42;;;;;;;23.17;4.67;;;;;;;20.08;57.92;98446.09;7316069;19;130057;-39
2022/03/30 01:28:07;;;;;;;36.60;6.10;;;;;;;20.10;57.58;98441.53;7314366;19;130056;-41
2022/03/30 01:33:16;;;;;;;29.75;5.03;;;;;;;20.13;57.31;98443.84;7317646;19;129567;-42
2022/03/30 01:35:42;;;;;;;16.23;4.28;;;;;;;20.12;57.75;98439.56;7316236;19;129565;-39
2022/03/30 01:38:07;;;;;;;35.85;5.75;;;;;;;20.11;58.32;98445.78;7314549;19;130468;-43
2022/03/30 01:40:33;;;;;;;26.13;5.50;;;;;;;20.08;58.92;98448.72;7315701;19;129438;-39
2022/03/30 01:42:58;;;;;;;23.00;4.55;;;;;;;20.09;57.75;98435.50;7317852;19;128939;-38
2022/03/30 01:45:24;;;;;;;44.22;6.85;;;;;;;20.10;57.42;98436.31;7315288;19;129662;-39
2022/03/30 01:47:54;;;;;;;10.15;3.80;;;;;;;20.08;59.40;98433.06;7315377;19;130322;-40
2022/03/30 01:50:20;;;;;;;27.67;4.80;;;;;;;20.05;58.56;98428.13;7314952;19;129383;-39
2022/03/30 01:52:46;;;;;;;20.08;4.18;;;;;;;20.07;58.15;98426.19;7317462;19;129010;-40
2022/03/30 01:55:11;;;;;;;39.17;6.28;;;;;;;20.07;57.82;98431.41;7316045;19;129918;-39
2022/03/30 01:57:37;;;;;;;17.35;4.43;;;;;;;20.05;58.08;98422.91;7314508;19;133193;-42
2022/03/30 02:00:04;;;;;;;31.80;5.32;;;;;;;20.04;57.95;98416.06;7316099;19;129579;-43
2022/03/30 02:02:30;;;;;;;24.02;4.82;;;;;;;20.06;57.65;98419.34;7316257;19;129496;-40
2022/03/30 02:04:55;;;;;;;19.48;4.30;;;;;;;20.05;57.47;98410.69;7315088;19;129014;-37
2022/03/30 02:07:20;;;;;;;17.80;3.87;;;;;;;20.07;58.09;98410.53;7314530;19;158374;-40
2022/03/30 02:09:46;;;;;;;23.65;4.63;;;;;;;20.07;58.32;98406.16;7312306;19;143650;-37
2022/03/30 02:12:11;;;;;;;24.08;4.72;;;;;;;20.07;58.39;98397.50;7315838;19;129882;-42
2022/03/30 02:14:37;;;;;;;23.05;4.72;;;;;;;20.09;57.32;98392.94;7316491;19;129148;-39
2022/03/30 02:17:03;;;;;;;25.50;4.87;;;;;;;20.07;58.95;98395.72;7314478;19;130616;-41
2022/03/30 02:19:29;;;;;;;23.98;4.78;;;;;;;20.08;58.59;98393.91;7315574;19;130037;-39
2022/03/30 02:21:54;;;;;;;28.27;5.18;;;;;;;20.09;58.14;98395.53;7315881;19;129018;-42
2022/03/30 02:24:19;;;;;;;22.27;4.72;;;;;;;20.06;57.35;98394.09;7314549;19;129107;-42
2022/03/30 02:26:47;;;;;;;24.80;4.88;;;;;;;20.04;57.78;98395.22;7315174;19;128955;-45
2022/03/30 02:29:12;;;;;;;14.05;4.35;;;;;;;20.03;58.92;98388.38;7312733;19;131536;-39
2022/03/30 02:31:37;;;;;;;24.15;4.82;;;;;;;20.05;57.63;98382.00;7315166;19;129994;-42
2022/03/30 02:34:03;;;;;;;31.63;5.65;;;;;;;20.06;58.37;98381.03;7311578;19;130870;-39
2022/03/30 02:36:28;;;;;;;23.33;4.75;;;;;;;20.04;58.45;98379.56;7313826;19;149983;-40
2022/03/30 02:38:53;;;;;;;28.73;5.57;;;;;;;20.05;58.23;98381.16;7314399;19;144996;-43
2022/03/30 02:41:19;;;;;;;12.57;4.32;;;;;;;20.07;57.29;98379.22;7315138;19;128819;-42
2022/03/30 02:43:44;;;;;;;26.93;5.13;;;;;;;19.97;57.53;98366.31;7313790;19;153384;-39
2022/03/30 02:46:09;;;;;;;21.77;4.90;;;;;;;20.06;57.94;98383.66;7312531;19;158261;-41
2022/03/30 02:48:35;;;;;;;26.43;5.07;;;;;;;20.03;58.34;98383.16;7311191;19;158663;-35
2022/03/30 02:51:06;;;;;;;23.73;4.82;;;;;;;20.05;58.27;98381.16;7315195;19;128974;-41
2022/03/30 02:53:33;;;;;;;37.78;6.35;;;;;;;20.08;57.54;98373.06;7313527;19;129152;-42
2022/03/30 02:55:59;;;;;;;;;;;;;;;20.10;59.55;98369.28;7314947;19;129053;-38
2022/03/30 02:58:25;;;;;;;19.63;4.38;;;;;;;20.08;58.17;98375.66;7311358;19;129392;-37
2022/03/30 03:00:51;;;;;;;24.15;5.00;;;;;;;20.05;57.45;98370.75;7315003;19;135788;-42
2022/03/30 03:03:16;;;;;;;27.95;5.22;;;;;;;19.96;57.39;98345.63;7314754;19;129114;-39
2022/03/30 03:05:42;;;;;;;25.77;4.95;;;;;;;20.02;58.07;98364.06;7313290;19;131254;-39
2022/03/30 03:08:10;;;;;;;35.45;5.80;;;;;;;20.06;58.14;98361.94;7311906;19;131126;-40
2022/03/30 03:10:37;;;;;;;23.45;4.68;;;;;;;19.96;58.59;98343.00;7313866;19;129192;-37
2022/03/30 03:13:06;;;;;;;;;;;;;;;20.09;59.80;98366.84;7313968;19;129031;-40
2022/03/30 03:15:33;;;;;;;41.88;6.70;;;;;;;20.07;57.92;98363.56;7313306;19;129778;-37
2022/03/30 03:17:59;;;;;;;23.80;4.78;;;;;;;20.04;57.60;98358.69;7311987;19;129706;-38
2022/03/30 03:20:25;;;;;;;18.45;4.20;;;;;;;19.96;58.01;98356.06;7313238;19;129492;-40
2022/03/30 03:22:50;;;;;;;25.00;4.87;;;;;;;20.05;57.91;98362.91;7313570;19;128868;-42
2022/03/30 03:25:16;;;;;;;29.48;5.22;;;;;;;20.04;57.81;98366.50;7313174;19;130183;-42
2022/03/30 03:27:41;;;;;;;35.25;6.00;;;;;;;20.05;58.06;98348.09;7310911;19;129364;-39
2022/03/30 03:30:07;;;;;;;28.25;5.43;;;;;;;20.04;57.45;98358.69;7310181;19;129387;-41
2022/03/30 03:32:32;;;;;;;28.23;4.73;;;;;;;20.02;58.40;98364.06;7312454;19;128953;-40
2022/03/30 03:34:58;;;;;;;27.13;5.57;;;;;;;20.03;57.84;98359.66;7311064;19;159393;-36
2022/03/30 03:37:23;;;;;;;24.05;4.95;;;;;;;20.01;58.03;98359.00;7309184;19;158434;-42
2022/03/30 03:39:49;;;;;;;20.27;4.38;;;;;;;20.04;58.00;98353.47;7312327;19;154352;-41
2022/03/30 03:42:16;;;;;;;25.00;4.68;;;;;;;19.99;57.75;98345.28;7313065;19;130565;-41
2022/03/30 03:44:41;;;;;;;23.55;4.90;;;;;;;20.03;58.62;98364.88;7312043;19;129111;-40
2022/03/30 03:47:09;;;;;;;20.17;4.70;;;;;;;20.03;58.22;98362.28;7311277;19;130245;-43
2022/03/30 03:49:38;;;;;;;18.48;4.70;;;;;;;20.01;59.02;98364.22;7311309;19;129026;-41
2022/03/30 03:52:05;;;;;;;31.65;5.70;;;;;;;20.03;58.08;98359.66;7312404;19;129728;-37
2022/03/30 03:54:30;;;;;;;;;;;;;;;20.07;60.11;98358.34;7312733;19;129271;-40
2022/03/30 03:56:55;;;;;;;26.60;5.23;;;;;;;20.04;57.91;98369.13;7310746;19;130006;-40
2022/03/30 03:59:20;;;;;;;26.23;5.10;;;;;;;20.04;58.41;98359.50;7307994;19;155257;-38
2022/03/30 04:01:45;;;;;;;23.48;4.55;;;;;;;20.04;57.85;98358.69;7312203;19;129004;-41
2022/03/30 04:04:11;;;;;;;31.20;5.33;;;;;;;20.05;58.25;98355.09;7310575;19;158705;-40
2022/03/30 04:06:36;;;;;;;26.73;5.57;;;;;;;20.02;58.37;98358.84;7309757;19;131379;-43
2022/03/30 04:09:02;;;;;;;13.80;4.32;;;;;;;20.03;58.23;98359.66;7310518;19;129503;-41
2022/03/30 04:11:28;;;;;;;22.63;4.70;;;;;;;20.03;57.98;98359.66;7312366;19;129333;-40
2022/03/30 04:13:53;;;;;;;36.83;6.03;;;;;;;20.05;58.27;98360.31;7309404;19;130151;-44
2022/03/30 04:16:19;;;;;;;26.98;5.68;;;;;;;20.01;57.89;98346.78;7309425;19;129321;-39
2022/03/30 04:18:45;;;;;;;23.02;4.93;;;;;;;20.02;57.46;98347.59;7308203;19;130041;-41
2022/03/30 04:21:11;;;;;;;50.95;8.20;;;;;;;19.92;58.13;98328.66;7308449;19;129474;-41
2022/03/30 04:23:37;;;;;;;29.58;5.70;;;;;;;20.04;57.59;98348.25;7307440;19;129180;-41
2022/03/30 04:26:02;;;;;;;29.55;5.70;;;;;;;20.03;57.76;98346.63;7309263;19;129108;-39
2022/03/30 04:28:28;;;;;;;22.27;4.88;;;;;;;20.03;58.04;98351.84;7306739;19;129709;-40
2022/03/30 04:30:53;;;;;;;22.73;4.88;;;;;;;19.92;58.08;98336.47;7310624;19;129636;-43
2022/03/30 04:33:18;;;;;;;43.03;6.68;;;;;;;20.01;58.34;98348.56;7309725;19;158838;-41
2022/03/30 04:35:43;;;;;;;27.73;5.30;;;;;;;20.01;57.97;98345.97;7308322;19;154435;-41
2022/03/30 04:38:09;;;;;;;23.70;4.97;;;;;;;20.00;58.12;98342.53;7309130;19;129413;-41
2022/03/30 04:40:34;;;;;;;25.00;4.70;;;;;;;20.03;57.43;98336.19;7311623;19;131304;-36
2022/03/30 04:43:00;;;;;;;31.23;5.72;;;;;;;20.02;58.82;98339.75;7310291;19;135431;-39
2022/03/30 04:45:26;;;;;;;50.30;7.88;;;;;;;20.00;58.37;98336.50;7306564;19;129673;-38
2022/03/30 04:47:55;;;;;;;21.52;4.63;;;;;;;20.01;57.63;98338.13;7309112;19;129029;-41
2022/03/30 04:50:21;;;;;;;30.77;5.70;;;;;;;19.99;58.54;98335.69;7308068;19;129189;-43
2022/03/30 04:52:47;;;;;;;45.92;6.28;;;;;;;19.99;58.04;98347.91;7308913;19;129602;-38
2022/03/30 04:55:13;;;;;;;32.42;5.80;;;;;;;19.98;58.52;98348.91;7308088;19;129674;-39
2022/03/30 04:57:40;;;;;;;27.27;4.93;;;;;;;19.89;57.94;98335.00;7310000;19;129646;-38
2022/03/30 05:00:08;;;;;;;25.77;5.47;;;;;;;19.89;58.05;98334.19;7316616;19;129115;-43
2022/03/30 05:02:33;;;;;;;29.77;5.78;;;;;;;19.88;59.07;98335.16;7316669;19;129296;-40
2022/03/30 05:04:59;;;;;;;43.78;7.13;;;;;;;19.99;58.34;98353.13;7313597;19;131093;-39
2022/03/30 05:07:24;;;;;;;28.48;5.53;;;;;;;19.98;57.37;98359.31;7315020;19;129127;-43
2022/03/30 05:09:50;;;;;;;26.80;5.05;;;;;;;20.01;58.03;98351.19;7312880;19;154048;-41
2022/03/30 05:12:15;;;;;;;18.75;4.72;;;;;;;19.97;57.92;98344.63;7317521;19;129210;-38
2022/03/30 05:14:41;;;;;;;37.25;6.00;;;;;;;19.95;58.64;98338.78;7315388;19;129186;-42
2022/03/30 05:17:06;;;;;;;26.83;5.18;;;;;;;19.96;58.17;98335.19;7311054;19;129024;-38
2022/03/30 05:19:31;;;;;;;41.95;6.63;;;;;;;19.95;58.55;98334.34;7315389;19;129592;-41
2022/03/30 05:21:57;;;;;;;60.60;8.25;;;;;;;19.96;58.06;98335.19;7300600;19;130731;-44
2022/03/30 05:24:22;;;;;;;75.00;10.27;;;;;;;19.99;58.34;98340.91;7300134;19;129837;-41
2022/03/30 05:26:48;;;;;;;19.40;4.25;;;;;;;19.98;58.81;98335.84;7311968;19;154040;-43
2022/03/30 05:29:13;;;;;;;18.27;4.00;;;;;;;19.98;57.60;98341.88;7310562;19;130309;-41
2022/03/30 05:31:39;;;;;;;31.13;5.85;;;;;;;19.86;57.65;98324.91;7313862;19;158196;-40
2022/03/30 05:34:04;;;;;;;79.10;9.77;;;;;;;19.96;58.34;98343.84;7303644;19;158660;-43
2022/03/30 05:36:29;;;;;;;39.77;6.03;;;;;;;19.98;57.59;98343.69;7308009;19;155762;-40
2022/03/30 05:38:55;;;;;;;50.45;6.72;;;;;;;19.96;58.04;98341.22;7312109;19;129698;-40
2022/03/30 05:41:20;;;;;;;33.83;5.30;;;;;;;19.97;57.79;98344.63;7311941;19;129575;-42
2022/03/30 05:43:45;;;;;;;16.52;4.05;;;;;;;19.99;58.50;98340.09;7311692;19;130396;-43
2022/03/30 05:46:11;;;;;;;37.13;5.63;;;;;;;19.99;58.12;98334.88;7310512;19;154520;-41
2022/03/30 05:48:37;;;;;;;27.88;4.63;;;;;;;19.97;58.22;98336.81;7310915;19;129288;-41
2022/03/30 05:51:03;;;;;;;36.77;5.77;;;;;;;19.99;58.01;98337.47;7315354;19;129534;-41
2022/03/30 05:53:28;;;;;;;22.92;4.47;;;;;;;20.00;57.88;98336.50;7306755;19;129672;-42
2022/03/30 05:55:55;;;;;;;42.58;6.47;;;;;;;19.95;58.04;98333.56;7315207;19;129449;-42
2022/03/30 05:58:21;;;;;;;9.77;3.83;;;;;;;19.95;58.51;98330.97;7315072;19;129491;-42
2022/03/30 06:00:46;;;;;;;27.33;5.35;;;;;;;19.94;58.75;98322.31;7309689;19;129716;-38
2022/03/30 06:03:11;;;;;;;39.53;6.53;;;;;;;19.97;57.77;98321.16;7313190;19;129161;-37
2022/03/30 06:05:37;;;;;;;24.45;4.68;;;;;;;19.99;58.34;98324.44;7314683;19;129289;-41
2022/03/30 06:08:04;;;;;;;35.35;5.72;;;;;;;19.95;58.67;98317.91;7313054;19;128864;-37
2022/03/30 06:10:29;;;;;;;33.58;5.22;;;;;;;19.97;58.74;98321.16;7305654;19;130648;-38
2022/03/30 06:12:56;;;;;;;35.90;5.65;;;;;;;19.89;59.25;98318.53;7310907;19;146389;-39
2022/03/30 06:15:22;;;;;;;40.17;6.28;;;;;;;19.95;57.88;98328.34;7312996;19;129619;-38
2022/03/30 06:17:49;;;;;;;27.52;5.05;;;;;;;19.95;58.59;98333.56;7313160;19;129779;-41
2022/03/30 06:20:15;;;;;;;19.95;4.35;;;;;;;19.94;58.03;98331.91;7315421;19;129112;-40
2022/03/30 06:22:41;;;;;;;18.98;4.35;;;;;;;19.89;58.10;98318.53;7315767;19;129553;-43
2022/03/30 06:25:07;;;;;;;28.23;5.10;;;;;;;19.85;58.60;98319.84;7315340;19;129227;-42
2022/03/30 06:27:33;;;;;;;38.78;5.53;;;;;;;19.91;58.50;98337.47;7313383;19;129037;-38
2022/03/30 06:29:58;;;;;;;18.67;3.85;;;;;;;19.96;58.04;98327.38;7313621;19;129310;-43
2022/03/30 06:32:23;;;;;;;26.63;4.72;;;;;;;19.95;58.21;98328.34;7312090;19;149077;-43
2022/03/30 06:34:48;;;;;;;17.10;3.70;;;;;;;19.88;58.71;98309.09;7313460;19;154550;-40
2022/03/30 06:37:14;;;;;;;21.70;4.40;;;;;;;19.94;58.16;98319.69;7312439;19;154330;-40
2022/03/30 06:39:39;;;;;;;17.67;3.72;;;;;;;19.87;58.27;98310.88;7315186;19;157679;-38
2022/03/30 06:42:05;;;;;;;8.68;2.92;;;;;;;19.97;58.06;98319.38;7314399;19;158461;-37
2022/03/30 06:44:31;;;;;;;30.63;5.05;;;;;;;19.97;58.05;98321.16;7315467;19;128701;-44
2022/03/30 06:46:57;;;;;;;;;;;;;;;19.95;59.52;98312.69;7311527;19;129357;-38
2022/03/30 06:49:22;;;;;;;18.00;4.03;;;;;;;19.95;58.37;98321.31;7312633;19;158389;-38
2022/03/30 06:51:47;;;;;;;29.53;4.67;;;;;;;19.94;59.02;98326.69;7310632;19;159196;-41
2022/03/30 06:54:12;;;;;;;21.85;4.35;;;;;;;19.98;57.64;98323.59;7313470;19;153279;-43
2022/03/30 06:56:38;;;;;;;32.72;5.78;;;;;;;19.95;57.86;98326.53;7310124;19;154603;-37
2022/03/30 06:59:03;;;;;;;28.47;5.03;;;;;;;19.92;58.96;98328.66;7312574;19;158690;-41
2022/03/30 07:01:28;;;;;;;28.98;5.00;;;;;;;19.91;58.68;98327.84;7309435;19;158381;-35
2022/03/30 07:03:54;;;;;;;18.92;3.60;;;;;;;19.92;58.42;98326.03;7312341;19;154566;-41
2022/03/30 07:06:19;;;;;;;22.30;4.47;;;;;;;19.91;58.40;98327.03;7315231;19;129024;-37
2022/03/30 07:11:29;;;;;;;26.52;5.00;;;;;;;19.92;58.32;98328.66;7315029;19;129765;-39
2022/03/30 07:13:56;;;;;;;31.10;4.78;;;;;;;19.94;57.53;98317.09;7311586;19;154355;-36
2022/03/30 07:16:23;;;;;;;46.90;6.25;;;;;;;19.93;58.20;98304.22;7308096;19;131179;-43
2022/03/30 07:18:49;;;;;;;21.55;3.92;;;;;;;19.91;58.52;98300.94;7311308;19;130272;-38
2022/03/30 07:21:15;;;;;;;18.17;3.75;;;;;;;19.91;58.49;98306.16;7312614;19;130561;-44
2022/03/30 07:23:40;;;;;;;23.00;3.97;;;;;;;19.93;57.48;98288.56;7313514;19;129807;-40
2022/03/30 07:26:05;;;;;;;21.90;4.13;;;;;;;19.92;58.26;98298.16;7313308;19;128944;-41
2022/03/30 07:28:31;;;;;;;25.40;4.60;;;;;;;19.89;58.53;98301.09;7310352;19;158483;-42
2022/03/30 07:30:56;;;;;;;29.90;4.47;;;;;;;19.90;58.15;98310.56;7313831;19;130412;-41
2022/03/30 07:33:23;;;;;;;20.85;4.00;;;;;;;19.89;58.29;98315.94;7312416;19;129677;-38
2022/03/30 07:35:49;;;;;;;;;;;;;;;19.93;59.78;98312.84;7306004;19;130177;-42
2022/03/30 07:38:16;;;;;;;30.25;4.85;;;;;;;19.92;58.10;98321.66;7303520;19;130196;-38
2022/03/30 07:40:42;;;;;;;;;;;;;;;19.96;60.49;98314.31;7302884;19;129414;-41
2022/03/30 07:43:07;;;;;;;79.85;9.38;;;;;;;19.93;58.56;98314.66;7307076;19;129772;-44
2022/03/30 07:45:34;;;;;;;48.72;6.53;;;;;;;19.91;59.02;98312.19;7305646;19;130069;-40
2022/03/30 07:47:59;;;;;;;57.97;7.65;;;;;;;19.90;58.19;98309.75;7305320;19;129360;-41
2022/03/30 07:50:24;;;;;;;43.55;5.93;;;;;;;19.92;57.97;98313.00;7308171;19;130007;-39
2022/03/30 07:52:50;;;;;;;43.15;5.90;;;;;;;19.93;58.23;98317.25;7307669;19;130799;-37
2022/03/30 07:55:15;;;;;;;25.23;4.28;;;;;;;19.90;58.35;98304.53;7309812;19;129756;-42
2022/03/30 07:57:42;;;;;;;23.15;4.10;;;;;;;19.91;59.17;98311.38;7311082;19;129427;-38
2022/03/30 08:00:18;;;;;;;50.72;6.65;;;;;;;19.92;58.34;98308.59;7308560;19;129372;-38
2022/03/30 08:02:45;;;;;;;5.80;2.53;;;;;;;19.90;58.15;98309.75;7312829;19;129265;-42
2022/03/30 08:05:12;;;;;;;33.55;5.25;;;;;;;19.91;58.00;98311.38;7311118;19;129626;-41
2022/03/30 08:07:42;;;;;;;46.03;6.07;;;;;;;19.81;58.35;98289.84;7308333;19;130776;-43
2022/03/30 08:10:08;;;;;;;23.23;4.15;;;;;;;19.87;58.55;98310.03;7310581;19;129513;-41
2022/03/30 08:12:34;;;;;;;65.82;7.90;;;;;;;19.89;58.55;98297.66;7309441;19;129113;-37
2022/03/30 08:15:00;;;;;;;24.42;4.22;;;;;;;19.88;58.79;98298.66;7309457;19;129019;-43
2022/03/30 08:17:26;;;;;;;23.23;4.03;;;;;;;19.87;58.65;98295.22;7310625;19;130131;-41
2022/03/30 08:19:51;;;;;;;18.05;3.78;;;;;;;19.89;58.29;98295.06;7307042;19;129547;-37
2022/03/30 08:22:28;;;;;;;20.45;4.35;;;;;;;19.87;58.73;98294.41;7308827;19;131092;-40
2022/03/30 08:25:07;;;;;;;25.33;4.30;;;;;;;19.76;58.97;98282.50;7310755;19;128987;-38
2022/03/30 08:27:34;;;;;;;33.65;4.90;;;;;;;19.87;58.44;98299.63;7309871;19;130390;-40
2022/03/30 08:29:59;;;;;;;;;;;;;;;19.90;59.48;98299.31;7310634;19;129676;-37
2022/03/30 08:32:26;;;;;;;32.13;5.10;;;;;;;19.88;58.90;98301.25;7303945;19;129233;-37
2022/03/30 08:34:53;;;;;;;;;;;;;;;19.93;59.39;98293.78;7308325;19;129475;-43
2022/03/30 08:37:19;;;;;;;40.55;5.32;;;;;;;19.90;58.50;98294.09;7303590;19;130510;-38
2022/03/30 08:39:45;;;;;;;33.13;4.50;;;;;;;19.90;58.46;98296.72;7307140;19;129794;-37
2022/03/30 08:42:13;;;;;;;33.92;4.88;;;;;;;19.86;58.72;98287.56;7307426;19;129127;-38
2022/03/30 08:44:41;;;;;;;41.15;5.32;;;;;;;19.82;58.15;98297.50;7305725;19;129160;-39
2022/03/30 08:47:06;;;;;;;43.10;5.13;;;;;;;19.87;58.62;98297.00;7305673;19;129961;-41
2022/03/30 08:49:37;;;;;;;30.67;4.40;;;;;;;19.87;58.23;98299.63;7306787;19;130340;-41
2022/03/30 08:52:03;;;;;;;10.57;3.15;;;;;;;19.83;58.90;98293.94;7309729;19;130375;-42
2022/03/30 08:54:30;;;;;;;22.95;3.88;;;;;;;19.86;58.41;98292.78;7309247;19;129038;-37
2022/03/30 08:56:56;;;;;;;;;;;;;;;19.89;59.05;98287.25;7309740;19;130161;-41
2022/03/30 08:59:23;;;;;;;30.35;4.43;;;;;;;19.86;58.66;98288.38;7305355;19;130875;-38
2022/03/30 09:01:49;;;;;;;27.65;4.20;;;;;;;19.85;58.42;98288.56;7308591;19;128863;-43
2022/03/30 09:04:18;;;;;;;18.50;3.17;;;;;;;19.83;58.71;98282.69;7304496;19;130109;-39
2022/03/30 09:06:46;;;;;;;7.97;2.72;;;;;;;19.83;58.16;98272.25;7308360;19;130098;-41
2022/03/30 09:09:14;;;;;;;20.60;4.10;;;;;;;19.82;59.09;98276.63;7311010;19;130488;-41
2022/03/30 09:11:40;;;;;;;15.90;3.38;;;;;;;19.85;58.41;98276.31;7311772;19;128853;-41
2022/03/30 09:14:07;;;;;;;28.25;4.32;;;;;;;19.86;58.81;98277.13;7309075;19;129900;-41
2022/03/30 09:16:44;;;;;;;41.47;5.53;;;;;;;19.87;60.35;98273.53;7309775;19;130386;-41
2022/03/30 09:19:12;;;;;;;27.83;4.28;;;;;;;19.84;58.77;98269.47;7308321;19;131407;-39
2022/03/30 09:21:52;;;;;;;27.30;4.57;;;;;;;19.84;58.68;98271.25;7310504;19;129177;-43
2022/03/30 09:24:20;;;;;;;21.60;3.35;;;;;;;19.88;58.85;98269.97;7309892;19;129103;-41
2022/03/30 09:26:48;;;;;;;19.77;3.67;;;;;;;19.85;58.24;98276.31;7309573;19;129542;-38
2022/03/30 09:29:13;;;;;;;16.55;3.45;;;;;;;19.80;59.36;98268.16;7309930;19;131179;-36
2022/03/30 09:31:39;;;;;;;22.45;3.85;;;;;;;19.71;58.81;98252.66;7309398;19;154648;-43
2022/03/30 09:34:06;;;;;;;22.70;3.60;;;;;;;19.85;59.10;98270.28;7310238;19;128803;-39
2022/03/30 09:36:35;;;;;;;21.92;3.72;;;;;;;19.85;58.17;98262.47;7310489;19;129540;-41
2022/03/30 09:39:02;;;;;;;16.63;3.28;;;;;;;19.85;58.71;98260.66;7309212;19;130903;-37
2022/03/30 09:41:46;;;;;;;26.20;4.20;;;;;;;19.84;60.11;98258.22;7310306;19;129326;-40
2022/03/30 09:44:12;;;;;;;20.08;3.63;;;;;;;19.85;58.45;98257.25;7314735;19;129550;-41
2022/03/30 09:47:05;;;;;;;22.98;4.13;;;;;;;19.84;59.20;98253.00;7316471;19;129773;-40
2022/03/30 09:49:41;;;;;;;56.90;6.57;;;;;;;19.84;59.26;98263.44;7307417;19;131109;-40
2022/03/30 09:52:24;;;;;;;33.85;4.82;;;;;;;19.82;60.18;98265.38;7307630;19;130893;-41
2022/03/30 09:54:54;;;;;;;55.45;6.88;;;;;;;19.77;58.11;98244.19;7307382;19;129999;-41
2022/03/30 09:57:22;;;;;;;81.07;9.27;;;;;;;19.82;59.16;98260.97;7304110;19;130776;-41
2022/03/30 10:00:04;;;;;;;33.65;4.60;;;;;;;19.83;59.59;98259.19;7308930;19;131640;-41
2022/03/30 10:02:31;;;;;;;30.55;4.53;;;;;;;19.71;58.25;98237.84;7314414;19;130296;-41
2022/03/30 10:04:57;;;;;;;65.63;7.22;;;;;;;19.84;58.66;98248.59;7304172;19;130593;-42
2022/03/30 10:07:22;;;;;;;17.45;3.28;;;;;;;19.85;57.96;98246.81;7307213;19;158569;-43
2022/03/30 10:09:48;;;;;;;38.70;5.15;;;;;;;19.84;59.21;98253.00;7309652;19;129775;-41
2022/03/30 10:12:17;;;;;;;41.58;5.50;;;;;;;19.82;58.69;98244.50;7308493;19;129393;-42
2022/03/30 10:14:43;;;;;;;59.22;6.57;;;;;;;19.83;58.94;98240.94;7307322;19;130294;-42
2022/03/30 10:17:08;;;;;;;33.92;4.90;;;;;;;19.82;58.99;98245.34;7301889;19;130034;-43
2022/03/30 10:19:34;;;;;;;32.05;4.68;;;;;;;19.82;58.98;98245.34;7314038;19;159007;-38
2022/03/30 10:22:36;;;;;;;28.95;4.22;;;;;;;19.75;59.77;98228.69;7315841;19;130694;-42
2022/03/30 10:25:09;;;;;;;26.25;3.92;;;;;;;19.82;58.49;98231.47;7313657;19;129100;-40
2022/03/30 10:27:54;;;;;;;21.90;3.45;;;;;;;19.83;59.24;98227.91;7312923;19;129611;-43
2022/03/30 10:30:29;;;;;;;27.73;4.13;;;;;;;19.81;60.07;98229.84;7313164;19;129233;-42
2022/03/30 10:32:58;;;;;;;30.38;4.22;;;;;;;19.81;59.40;98227.25;7313766;19;129003;-40
2022/03/30 10:35:38;;;;;;;25.73;3.78;;;;;;;19.85;59.56;98228.56;7314483;19;129061;-41
2022/03/30 10:38:04;;;;;;;35.70;5.03;;;;;;;19.81;58.29;98224.63;7309591;19;130195;-38
2022/03/30 10:40:29;;;;;;;29.95;4.53;;;;;;;19.83;59.35;98233.13;7312643;19;129160;-39
2022/03/30 10:42:54;;;;;;;25.60;3.85;;;;;;;19.82;59.51;98229.69;7314811;19;131357;-36
2022/03/30 10:45:59;;;;;;;36.13;5.13;;;;;;;19.83;59.95;98225.31;7312033;19;154750;-37
2022/03/30 10:48:30;;;;;;;33.35;4.72;;;;;;;19.83;59.16;98220.09;7306842;19;130081;-38
2022/03/30 10:51:08;;;;;;;10.38;2.53;;;;;;;19.82;59.49;98218.44;7311227;19;130461;-40
2022/03/30 10:53:35;;;;;;;24.75;3.95;;;;;;;19.83;58.78;98225.31;7312793;19;154921;-39
2022/03/30 10:56:07;;;;;;;29.98;3.88;;;;;;;19.70;59.23;98198.88;7311133;19;128936;-40
2022/03/30 10:58:32;;;;;;;17.70;2.85;;;;;;;19.80;58.97;98215.19;7310544;19;158455;-43
2022/03/30 11:01:18;;;;;;;21.17;3.30;;;;;;;19.82;59.46;98205.41;7315500;19;129259;-42
2022/03/30 11:03:55;;;;;;;18.45;3.13;;;;;;;19.78;59.55;98206.72;7313356;19;129020;-38
2022/03/30 11:06:20;;;;;;;25.23;3.85;;;;;;;19.81;58.63;98198.56;7313223;19;154217;-41
2022/03/30 11:08:48;;;;;;;25.13;3.85;;;;;;;19.81;59.09;98196.78;7312160;19;129093;-36
2022/03/30 11:11:43;;;;;;;26.30;4.03;;;;;;;19.81;60.24;98202.00;7310704;19;129394;-42
2022/03/30 11:14:29;;;;;;;18.83;3.28;;;;;;;19.81;60.12;98195.97;7313189;19;130161;-41
2022/03/30 11:16:58;;;;;;;10.68;2.67;;;;;;;19.79;58.89;98187.47;7312034;19;129061;-39
2022/03/30 11:19:31;;;;;;;27.80;3.83;;;;;;;19.79;58.22;98182.25;7314174;19;129932;-42
2022/03/30 11:22:13;;;;;;;31.15;4.13;;;;;;;19.78;59.03;98176.25;7314309;19;129815;-43
2022/03/30 11:24:41;;;;;;;30.63;4.10;;;;;;;19.79;58.45;98174.44;7314060;19;129469;-39